Star Herdla — LAVD4 — position and weather

sailwx.info

Track history (hours):
 
Tides and Currents Weather Stations Pressure Air Temp Water Temp Dewpoint Dewpoint Depression Visibility Wind Speed Wind Dir Waves Ship Positions

Star Herdla

Last reported at 2015-Feb-26 07:32 UTC. Time now 2015-Mar-06 21:36 UTC.
Position N 26°12' W 079°26'.
Warning: this ship's position is 8 days out of date.

Type: Cargo ship. MMSI: 258954000.

Date/timePositionNaut miles runAvg speedWind from/ knotsBaromVisibWave heightAir tempDewpointWater temp
2015-Feb-26 07:32N 26°12' W 079°26'1818.5
2015-Feb-26 06:33N 25°54' W 079°29'2518.8
2015-Feb-26 05:13N 25°29' W 079°34'3118.4
2015-Feb-26 03:33N 24°59' W 079°39'1817.7
2015-Feb-26 02:33N 24°42' W 079°43'  
2015-Feb-16 18:12N 29°21' W 094°46'812.1
2015-Feb-16 17:32N 29°27' W 094°51'1211.9
2015-Feb-16 16:33N 29°38' W 094°58'9 8.8
2015-Feb-16 15:33N 29°45' W 095°04'6 6.2
2015-Feb-16 14:33N 29°45' W 095°11'5 4.7
2015-Feb-16 13:33N 29°43' W 095°16'1 0.5
2015-Feb-16 12:31N 29°44' W 095°17'0 0.0
2015-Feb-16 08:28N 29°44' W 095°17'  
Track history (hours):
 
Tides and Currents Weather Stations Pressure Air Temp Water Temp Dewpoint Dewpoint Depression Visibility Wind Speed Wind Dir Waves Ship Positions

Star Herdla

Last reported at 2015-Feb-26 07:32 UTC. Time now 2015-Mar-06 21:36 UTC.
Position N 26°12' W 079°26'.
Warning: this ship's position is 8 days out of date.

Type: Cargo ship. MMSI: 258954000.

Date/timePositionNaut miles runAvg speedWind from/ knotsBaromVisibWave heightAir tempDewpointWater temp
2015-Feb-26 07:32N 26°12' W 079°26'1818.5
2015-Feb-26 06:33N 25°54' W 079°29'2518.8
2015-Feb-26 05:13N 25°29' W 079°34'3118.4
2015-Feb-26 03:33N 24°59' W 079°39'1817.7
2015-Feb-26 02:33N 24°42' W 079°43'  
2015-Feb-16 18:12N 29°21' W 094°46'812.1
2015-Feb-16 17:32N 29°27' W 094°51'1211.9
2015-Feb-16 16:33N 29°38' W 094°58'9 8.8
2015-Feb-16 15:33N 29°45' W 095°04'6 6.2
2015-Feb-16 14:33N 29°45' W 095°11'5 4.7
2015-Feb-16 13:33N 29°43' W 095°16'1 0.5
2015-Feb-16 12:31N 29°44' W 095°17'0 0.0
2015-Feb-16 08:28N 29°44' W 095°17'  

Dump ship's entire track history